createdAt,value
2022-12-09T00:01:49.380Z,27.50
2022-12-09T00:04:18.548Z,26.45
2022-12-09T00:06:46.758Z,25.63
2022-12-09T00:09:16.204Z,27.40
2022-12-09T00:11:44.660Z,26.80
2022-12-09T00:14:13.018Z,27.70
2022-12-09T00:16:42.591Z,27.25
2022-12-09T00:19:11.060Z,29.85
2022-12-09T00:21:39.062Z,27.80
2022-12-09T00:24:08.964Z,27.00
2022-12-09T00:26:37.081Z,28.67
2022-12-09T00:29:05.474Z,29.27
2022-12-09T00:31:35.668Z,28.33
2022-12-09T00:34:07.007Z,27.47
2022-12-09T00:36:35.811Z,28.25
2022-12-09T00:39:04.319Z,28.27
2022-12-09T00:41:32.269Z,26.65
2022-12-09T00:44:00.551Z,29.13
2022-12-09T00:46:28.826Z,28.70
2022-12-09T00:48:57.225Z,26.45
2022-12-09T00:51:27.089Z,28.88
2022-12-09T00:53:55.952Z,27.08
2022-12-09T00:56:25.408Z,28.13
2022-12-09T00:58:53.500Z,27.10
2022-12-09T01:01:21.783Z,26.10
2022-12-09T01:03:50.242Z,28.20
2022-12-09T01:06:21.077Z,25.80
2022-12-09T01:08:50.779Z,28.92
2022-12-09T01:11:21.541Z,27.20
2022-12-09T01:13:50.293Z,27.35
2022-12-09T01:16:21.104Z,25.50
2022-12-09T01:18:49.491Z,27.00
2022-12-09T01:21:18.277Z,25.55
2022-12-09T01:23:46.460Z,27.52
2022-12-09T01:26:15.967Z,28.17
2022-12-09T01:28:44.073Z,27.25
2022-12-09T01:31:15.508Z,27.38
2022-12-09T01:33:44.163Z,27.02
2022-12-09T01:36:17.618Z,27.25
2022-12-09T01:38:45.999Z,28.65
2022-12-09T01:41:16.594Z,29.42
2022-12-09T01:43:45.339Z,29.48
2022-12-09T01:46:14.066Z,28.85
2022-12-09T01:48:46.048Z,29.77
2022-12-09T01:51:16.484Z,28.83
2022-12-09T01:53:47.248Z,31.77
2022-12-09T01:56:21.218Z,33.17
2022-12-09T01:58:50.325Z,31.55
2022-12-09T02:01:19.543Z,33.15
2022-12-09T02:03:48.573Z,33.80
2022-12-09T02:06:16.877Z,31.55
2022-12-09T02:08:45.688Z,30.40
2022-12-09T02:11:24.431Z,30.45
2022-12-09T02:14:02.064Z,30.85
2022-12-09T02:16:35.644Z,33.33
2022-12-09T02:19:17.851Z,32.20
2022-12-09T02:21:55.301Z,34.47
2022-12-09T02:24:31.238Z,31.02
2022-12-09T02:27:06.144Z,33.25
2022-12-09T02:30:08.685Z,30.45
2022-12-09T02:33:12.268Z,30.52
2022-12-09T02:35:45.152Z,31.07
2022-12-09T02:38:18.596Z,32.43
2022-12-09T02:40:50.483Z,28.70
2022-12-09T02:43:21.335Z,29.48
2022-12-09T02:45:51.245Z,27.90
2022-12-09T02:48:24.652Z,28.65
2022-12-09T02:50:56.638Z,27.50
2022-12-09T02:53:26.746Z,29.00
2022-12-09T02:55:57.143Z,26.35
2022-12-09T02:58:25.312Z,30.83
2022-12-09T03:00:57.229Z,27.58
2022-12-09T03:03:26.338Z,30.50
2022-12-09T03:06:01.735Z,29.00
2022-12-09T03:08:38.060Z,30.23
2022-12-09T03:11:08.961Z,27.92
2022-12-09T03:13:46.301Z,30.83
2022-12-09T03:16:20.886Z,30.52
2022-12-09T03:18:53.472Z,29.90
2022-12-09T03:21:24.941Z,31.50
2022-12-09T03:23:56.105Z,33.53
2022-12-09T03:26:28.785Z,29.95
2022-12-09T03:28:58.403Z,32.70
2022-12-09T03:31:30.019Z,27.95
2022-12-09T03:34:03.611Z,27.53
2022-12-09T03:36:37.924Z,28.97
2022-12-09T03:39:11.119Z,28.63
2022-12-09T03:41:44.610Z,28.33
2022-12-09T03:44:17.916Z,28.52
2022-12-09T03:46:46.577Z,28.92
2022-12-09T03:49:15.335Z,28.95
2022-12-09T03:51:48.269Z,26.40
2022-12-09T03:54:21.440Z,30.10
2022-12-09T03:56:53.327Z,28.13
2022-12-09T03:59:25.021Z,27.10
2022-12-09T04:01:53.768Z,25.77
2022-12-09T04:04:22.858Z,25.40
2022-12-09T04:06:54.503Z,28.05
2022-12-09T04:09:23.226Z,28.40
2022-12-09T04:11:51.682Z,26.58
2022-12-09T04:14:19.938Z,28.25
2022-12-09T04:16:48.227Z,23.05
2022-12-09T04:19:16.729Z,24.87
2022-12-09T04:21:44.863Z,23.15
2022-12-09T04:24:14.261Z,27.15
2022-12-09T04:26:42.500Z,24.00
2022-12-09T04:29:11.369Z,22.13
2022-12-09T04:31:39.675Z,24.15
2022-12-09T04:34:09.693Z,23.67
2022-12-09T04:36:38.762Z,24.00
2022-12-09T04:39:07.581Z,22.92
2022-12-09T04:41:37.602Z,21.98
2022-12-09T04:44:06.439Z,20.60
2022-12-09T04:46:35.000Z,24.02
2022-12-09T04:49:03.273Z,22.23
2022-12-09T04:51:37.542Z,23.27
2022-12-09T04:54:07.928Z,24.10
2022-12-09T04:56:37.533Z,22.52
2022-12-09T04:59:06.496Z,21.77
2022-12-09T05:01:34.998Z,21.27
2022-12-09T05:04:04.243Z,21.27
2022-12-09T05:06:32.823Z,24.20
2022-12-09T05:09:01.301Z,21.98
2022-12-09T05:11:29.746Z,20.33
2022-12-09T05:13:59.293Z,21.27
2022-12-09T05:16:28.093Z,23.42
2022-12-09T05:18:56.218Z,21.83
2022-12-09T05:21:24.395Z,23.08
2022-12-09T05:23:52.977Z,21.02
2022-12-09T05:26:23.456Z,21.17
2022-12-09T05:28:52.392Z,22.50
2022-12-09T05:31:23.855Z,20.85
2022-12-09T05:33:53.270Z,21.80
2022-12-09T05:36:24.305Z,19.25
2022-12-09T05:38:53.334Z,21.30
2022-12-09T05:41:22.816Z,23.05
2022-12-09T05:43:51.946Z,21.10
2022-12-09T05:46:21.991Z,22.83
2022-12-09T05:48:50.836Z,24.88
2022-12-09T05:51:26.272Z,22.60
2022-12-09T05:53:55.269Z,19.23
2022-12-09T05:56:25.485Z,21.65
2022-12-09T05:58:54.739Z,18.40
2022-12-09T06:01:25.014Z,20.85
2022-12-09T06:03:55.503Z,21.80
2022-12-09T06:06:27.987Z,19.60
2022-12-09T06:08:58.104Z,22.65
2022-12-09T06:11:27.838Z,23.38
2022-12-09T06:13:56.179Z,21.63
2022-12-09T06:16:26.063Z,19.92
2022-12-09T06:18:54.689Z,23.17
2022-12-09T06:21:23.680Z,21.70
2022-12-09T06:23:52.263Z,20.67
2022-12-09T06:26:22.352Z,21.10
2022-12-09T06:28:50.894Z,22.65
2022-12-09T06:31:19.675Z,22.85
2022-12-09T06:33:58.431Z,20.75
2022-12-09T06:36:29.164Z,20.33
2022-12-09T06:39:03.109Z,23.27
2022-12-09T06:41:36.568Z,19.52
2022-12-09T06:44:04.861Z,22.30
2022-12-09T06:46:33.100Z,21.70
2022-12-09T06:49:03.579Z,22.60
2022-12-09T06:51:32.007Z,23.00
2022-12-09T06:54:00.402Z,23.20
2022-12-09T06:56:28.974Z,21.30
2022-12-09T06:58:57.493Z,23.00
2022-12-09T07:01:27.017Z,22.52
2022-12-09T07:03:58.293Z,23.05
2022-12-09T07:06:30.125Z,21.90
2022-12-09T07:09:01.026Z,20.33
2022-12-09T07:11:29.710Z,21.38
2022-12-09T07:13:58.326Z,22.75
2022-12-09T07:16:26.814Z,20.98
2022-12-09T07:18:55.657Z,23.00
2022-12-09T07:21:24.957Z,23.10
2022-12-09T07:23:54.830Z,22.33
2022-12-09T07:26:22.985Z,23.75
2022-12-09T07:28:51.446Z,24.00
2022-12-09T07:31:21.447Z,24.53
2022-12-09T07:33:51.201Z,21.52
2022-12-09T07:36:21.547Z,24.35
2022-12-09T07:38:50.486Z,22.05
2022-12-09T07:41:20.329Z,22.92
2022-12-09T07:43:48.945Z,25.98
2022-12-09T07:46:19.105Z,22.30
2022-12-09T07:48:48.320Z,22.90
2022-12-09T07:51:17.147Z,21.58
2022-12-09T07:53:46.019Z,23.05
2022-12-09T07:56:15.845Z,23.00
2022-12-09T07:58:47.815Z,27.45
2022-12-09T08:01:18.224Z,22.25
2022-12-09T08:03:47.339Z,27.95
2022-12-09T08:06:17.226Z,24.77
2022-12-09T08:08:46.487Z,21.80
2022-12-09T08:11:17.347Z,23.92
2022-12-09T08:13:48.209Z,23.88
2022-12-09T08:16:19.523Z,23.52
2022-12-09T08:18:48.908Z,20.33
2022-12-09T08:21:27.822Z,22.67
2022-12-09T08:23:57.525Z,22.30
2022-12-09T08:26:27.912Z,20.67
2022-12-09T08:28:57.401Z,23.50
2022-12-09T08:31:28.526Z,22.38
2022-12-09T08:33:57.813Z,20.50
2022-12-09T08:36:28.513Z,21.45
2022-12-09T08:38:59.483Z,24.17
2022-12-09T08:41:36.830Z,21.55
2022-12-09T08:44:09.710Z,23.08
2022-12-09T08:46:39.962Z,23.35
2022-12-09T08:49:09.112Z,22.80
2022-12-09T08:51:38.115Z,20.57
2022-12-09T08:54:07.634Z,21.00
2022-12-09T08:56:36.105Z,23.20
2022-12-09T08:59:05.082Z,24.08
2022-12-09T09:01:35.783Z,22.73
2022-12-09T09:04:07.726Z,21.60
2022-12-09T09:06:37.318Z,22.83
2022-12-09T09:09:06.732Z,23.35
2022-12-09T09:11:35.569Z,23.97
2022-12-09T09:14:05.815Z,22.60
2022-12-09T09:16:36.423Z,22.75
2022-12-09T09:19:06.087Z,23.20
2022-12-09T09:21:35.779Z,25.33
2022-12-09T09:24:08.678Z,25.40
2022-12-09T09:26:40.008Z,23.67
2022-12-09T09:29:08.529Z,25.98
2022-12-09T09:31:38.378Z,24.80
2022-12-09T09:34:06.741Z,23.90
2022-12-09T09:36:35.469Z,27.45
2022-12-09T09:39:03.757Z,25.33
2022-12-09T09:41:44.757Z,25.13
2022-12-09T09:44:20.566Z,29.77
2022-12-09T09:46:51.900Z,26.20
2022-12-09T09:49:26.256Z,32.13
2022-12-09T09:51:55.020Z,32.30
2022-12-09T09:54:23.553Z,31.60
2022-12-09T09:56:58.009Z,30.15
2022-12-09T09:59:35.767Z,37.08
2022-12-09T10:02:17.212Z,41.50
2022-12-09T10:05:00.143Z,46.67
2022-12-09T10:07:36.754Z,46.70
2022-12-09T10:10:18.308Z,42.88
2022-12-09T10:13:08.164Z,43.65
2022-12-09T10:15:46.133Z,44.70
2022-12-09T10:18:22.091Z,44.83
2022-12-09T10:20:50.997Z,46.67
2022-12-09T10:23:20.213Z,44.40
2022-12-09T10:25:51.951Z,50.03
2022-12-09T10:28:23.944Z,50.30
2022-12-09T10:30:54.517Z,46.65
2022-12-09T10:33:28.483Z,46.70
2022-12-09T10:35:57.623Z,50.90
2022-12-09T10:38:27.506Z,47.63
2022-12-09T10:41:02.920Z,49.28
2022-12-09T10:43:38.907Z,47.35
2022-12-09T10:46:19.691Z,46.70
2022-12-09T10:48:59.051Z,47.47
2022-12-09T10:51:30.151Z,51.05
2022-12-09T10:54:00.856Z,48.95
2022-12-09T10:56:32.709Z,47.58
2022-12-09T10:59:12.879Z,48.58
2022-12-09T11:01:51.795Z,50.55
2022-12-09T11:04:26.828Z,46.80
2022-12-09T11:07:00.245Z,51.08
2022-12-09T11:09:32.004Z,46.88
2022-12-09T11:12:02.025Z,47.17
2022-12-09T11:14:36.880Z,49.88
2022-12-09T11:17:17.069Z,48.03
2022-12-09T11:19:50.732Z,50.75
2022-12-09T11:22:29.297Z,48.20
2022-12-09T11:25:16.621Z,48.88
2022-12-09T11:27:51.018Z,54.83
2022-12-09T11:30:22.403Z,52.55
2022-12-09T11:32:59.805Z,55.53
2022-12-09T11:35:33.138Z,45.75
2022-12-09T11:38:05.299Z,53.03
2022-12-09T11:40:34.104Z,51.00
2022-12-09T11:43:03.151Z,52.50
2022-12-09T11:45:34.572Z,49.35
2022-12-09T11:48:27.705Z,54.30
2022-12-09T11:50:57.860Z,50.35
2022-12-09T11:53:30.049Z,48.30
2022-12-09T11:56:04.733Z,54.42
2022-12-09T11:58:43.841Z,50.28
2022-12-09T12:01:19.071Z,51.53
2022-12-09T12:03:52.087Z,51.73
2022-12-09T12:06:23.730Z,48.60
2022-12-09T12:08:55.880Z,50.27
2022-12-09T12:11:29.538Z,47.45
2022-12-09T12:14:04.174Z,51.77
2022-12-09T12:16:39.941Z,49.63
2022-12-09T12:19:16.671Z,49.38
2022-12-09T12:22:09.493Z,47.22
2022-12-09T12:25:19.846Z,49.55
2022-12-09T12:28:02.226Z,53.00
2022-12-09T12:30:40.915Z,49.70
2022-12-09T12:34:07.931Z,49.92
2022-12-09T12:36:30.104Z,50.65
2022-12-09T12:39:14.330Z,49.10
2022-12-09T12:41:50.535Z,51.40
2022-12-09T12:44:53.553Z,52.97
2022-12-09T12:47:26.237Z,50.45
2022-12-09T12:50:31.472Z,49.40
2022-12-09T12:53:05.171Z,50.08
2022-12-09T12:55:54.959Z,50.38
2022-12-09T12:58:43.656Z,53.38
2022-12-09T13:01:18.009Z,49.40
2022-12-09T13:03:58.024Z,50.13
2022-12-09T13:06:36.434Z,47.88
2022-12-09T13:09:10.918Z,48.85
2022-12-09T13:11:50.498Z,49.67
2022-12-09T13:14:24.652Z,49.75
2022-12-09T13:16:53.730Z,51.78
2022-12-09T13:19:24.930Z,49.10
2022-12-09T13:21:53.622Z,53.33
2022-12-09T13:24:28.464Z,58.70
2022-12-09T13:27:04.751Z,54.50
2022-12-09T13:29:40.656Z,52.78
2022-12-09T13:32:27.794Z,57.60
2022-12-09T13:35:06.381Z,55.38
2022-12-09T13:37:55.703Z,54.45
2022-12-09T13:40:36.760Z,54.80
2022-12-09T13:43:13.678Z,60.47
2022-12-09T13:45:51.382Z,55.20
2022-12-09T13:48:41.099Z,55.08
2022-12-09T13:51:09.194Z,55.08
2022-12-09T13:53:45.852Z,57.03
2022-12-09T13:56:26.172Z,56.05
2022-12-09T13:59:36.564Z,57.13
2022-12-09T14:02:14.343Z,59.97
2022-12-09T14:04:48.727Z,55.33
2022-12-09T14:07:23.624Z,59.65
2022-12-09T14:09:55.396Z,58.83
2022-12-09T14:13:04.515Z,59.97
2022-12-09T14:15:39.741Z,60.97
2022-12-09T14:18:30.531Z,59.67
2022-12-09T14:21:28.518Z,61.03
2022-12-09T14:24:36.710Z,58.67
2022-12-09T14:27:13.649Z,61.00
2022-12-09T14:29:50.958Z,60.60
2022-12-09T14:32:29.020Z,59.13
2022-12-09T14:35:23.769Z,62.72
2022-12-09T14:38:04.760Z,58.97
2022-12-09T14:40:52.877Z,63.00
2022-12-09T14:43:47.106Z,57.13
2022-12-09T14:46:24.704Z,58.80
2022-12-09T14:48:58.012Z,60.15
2022-12-09T14:51:36.153Z,56.17
2022-12-09T14:54:08.394Z,58.25
2022-12-09T14:56:36.486Z,57.95
2022-12-09T14:59:07.489Z,57.15
2022-12-09T15:01:51.716Z,58.25
2022-12-09T15:04:32.305Z,55.03
2022-12-09T15:07:15.530Z,65.80
2022-12-09T15:09:52.734Z,63.58
2022-12-09T15:12:24.817Z,60.67
2022-12-09T15:14:59.037Z,61.45
2022-12-09T15:17:31.490Z,58.55
2022-12-09T15:20:01.790Z,55.20
2022-12-09T15:22:32.634Z,59.88
2022-12-09T15:25:03.052Z,58.75
2022-12-09T15:27:31.502Z,56.38
2022-12-09T15:29:59.708Z,62.65
2022-12-09T15:32:29.526Z,60.67
2022-12-09T15:35:15.488Z,56.80
2022-12-09T15:37:45.563Z,59.13
2022-12-09T15:40:16.885Z,55.47
2022-12-09T15:42:48.208Z,55.50
2022-12-09T15:45:19.924Z,54.20
2022-12-09T15:47:51.338Z,56.72
2022-12-09T15:50:22.250Z,54.05
2022-12-09T15:52:55.325Z,59.90
2022-12-09T15:55:27.605Z,54.83
2022-12-09T15:57:58.811Z,55.03
2022-12-09T16:00:26.803Z,55.50
2022-12-09T16:02:55.090Z,62.70
2022-12-09T16:05:25.786Z,56.10
2022-12-09T16:07:58.075Z,52.58
2022-12-09T16:10:27.635Z,56.70
2022-12-09T16:13:10.527Z,56.33
2022-12-09T16:15:45.786Z,57.65
2022-12-09T16:18:18.475Z,56.88
2022-12-09T16:21:00.481Z,58.80
2022-12-09T16:23:30.006Z,53.47
2022-12-09T16:26:06.606Z,53.63
2022-12-09T16:28:35.900Z,49.88
2022-12-09T16:31:16.639Z,54.05
2022-12-09T16:33:49.229Z,52.63
2022-12-09T16:36:20.299Z,52.42
2022-12-09T16:39:32.624Z,54.65
2022-12-09T16:42:03.017Z,60.35
2022-12-09T16:44:34.393Z,51.92
2022-12-09T16:47:14.443Z,52.75
2022-12-09T16:49:45.387Z,55.38
2022-12-09T16:52:15.039Z,55.72
2022-12-09T16:54:48.322Z,50.47
2022-12-09T16:57:18.645Z,58.03
2022-12-09T16:59:47.426Z,51.30
2022-12-09T17:02:20.044Z,51.38
2022-12-09T17:04:49.038Z,48.37
2022-12-09T17:07:29.997Z,50.92
2022-12-09T17:09:59.387Z,49.67
2022-12-09T17:12:27.485Z,49.97
2022-12-09T17:14:55.483Z,52.78
2022-12-09T17:17:23.491Z,49.05
2022-12-09T17:19:51.833Z,47.33
2022-12-09T17:22:19.912Z,44.92
2022-12-09T17:24:47.876Z,50.70
2022-12-09T17:27:17.337Z,47.17
2022-12-09T17:29:46.115Z,45.67
2022-12-09T17:32:14.537Z,44.97
2022-12-09T17:34:42.516Z,46.50
2022-12-09T17:37:10.487Z,46.10
2022-12-09T17:39:38.695Z,44.95
2022-12-09T17:42:06.772Z,41.05
2022-12-09T17:44:36.421Z,39.70
2022-12-09T17:47:04.444Z,39.30
2022-12-09T17:49:32.410Z,39.97
2022-12-09T17:52:00.426Z,36.53
2022-12-09T17:54:28.407Z,35.13
2022-12-09T17:56:56.395Z,37.97
2022-12-09T17:59:24.344Z,38.97
2022-12-09T18:01:53.752Z,36.20
2022-12-09T18:04:21.768Z,32.72
2022-12-09T18:06:49.836Z,33.53
2022-12-09T18:09:20.194Z,36.03
2022-12-09T18:11:48.538Z,35.70
2022-12-09T18:14:17.088Z,35.58
2022-12-09T18:16:46.428Z,36.60
2022-12-09T18:19:18.156Z,36.55
2022-12-09T18:21:46.611Z,35.55
2022-12-09T18:24:15.204Z,37.35
2022-12-09T18:26:43.669Z,36.53
2022-12-09T18:29:12.231Z,37.22
2022-12-09T18:31:40.493Z,32.75
2022-12-09T18:34:09.017Z,36.65
2022-12-09T18:36:38.398Z,32.27
2022-12-09T18:39:06.604Z,28.48
2022-12-09T18:41:35.455Z,29.52
2022-12-09T18:44:05.588Z,32.35
2022-12-09T18:46:36.446Z,30.90
2022-12-09T18:49:06.258Z,28.40
2022-12-09T18:51:34.604Z,31.30
2022-12-09T18:54:05.337Z,27.83
2022-12-09T18:56:34.181Z,29.05
2022-12-09T18:59:07.491Z,26.93
2022-12-09T19:01:39.439Z,29.02
2022-12-09T19:04:09.811Z,31.60
2022-12-09T19:06:39.959Z,32.90
2022-12-09T19:09:10.956Z,32.78
2022-12-09T19:11:40.712Z,33.20
2022-12-09T19:14:09.704Z,32.55
2022-12-09T19:16:38.465Z,33.17
2022-12-09T19:19:10.013Z,31.97
2022-12-09T19:21:38.732Z,32.92
2022-12-09T19:24:07.695Z,31.25
2022-12-09T19:26:37.848Z,35.10
2022-12-09T19:29:08.638Z,32.35
2022-12-09T19:31:39.395Z,31.13
2022-12-09T19:34:09.179Z,33.42
2022-12-09T19:36:37.221Z,33.78
2022-12-09T19:39:08.331Z,36.03
2022-12-09T19:41:38.455Z,36.53
2022-12-09T19:44:07.490Z,36.25
2022-12-09T19:46:36.653Z,32.05
2022-12-09T19:49:04.839Z,34.33
2022-12-09T19:51:32.855Z,36.10
2022-12-09T19:54:02.228Z,34.22
2022-12-09T19:56:31.076Z,33.08
2022-12-09T19:59:01.087Z,36.38
2022-12-09T20:01:31.479Z,36.13
2022-12-09T20:04:13.516Z,37.83
2022-12-09T20:06:47.967Z,38.00
2022-12-09T20:09:19.253Z,36.50
2022-12-09T20:11:47.316Z,38.22
2022-12-09T20:14:16.707Z,37.65
2022-12-09T20:16:44.752Z,35.15
2022-12-09T20:19:12.813Z,34.50
2022-12-09T20:21:40.860Z,33.20
2022-12-09T20:24:10.040Z,36.20
2022-12-09T20:26:39.468Z,30.67
2022-12-09T20:29:10.609Z,35.00
2022-12-09T20:31:40.795Z,35.75
2022-12-09T20:34:11.789Z,33.70
2022-12-09T20:36:42.396Z,31.30
2022-12-09T20:39:14.928Z,33.83
2022-12-09T20:41:44.361Z,32.10
2022-12-09T20:44:13.865Z,31.17
2022-12-09T20:46:47.317Z,32.70
2022-12-09T20:49:15.332Z,34.23
2022-12-09T20:51:45.241Z,33.45
2022-12-09T20:54:13.804Z,33.47
2022-12-09T20:56:42.029Z,34.43
2022-12-09T20:59:11.317Z,31.48
2022-12-09T21:01:40.060Z,35.95
2022-12-09T21:04:09.540Z,35.75
2022-12-09T21:06:40.136Z,36.10
2022-12-09T21:09:10.059Z,31.95
2022-12-09T21:11:38.323Z,35.00
2022-12-09T21:14:07.823Z,35.70
2022-12-09T21:16:38.690Z,35.27
2022-12-09T21:19:11.630Z,38.80
2022-12-09T21:21:41.776Z,39.05
2022-12-09T21:24:12.092Z,36.28
2022-12-09T21:26:40.478Z,39.78
2022-12-09T21:29:09.176Z,39.83
2022-12-09T21:31:38.793Z,42.10
2022-12-09T21:34:09.861Z,41.50
2022-12-09T21:36:39.480Z,44.55
2022-12-09T21:39:09.057Z,45.13
2022-12-09T21:41:38.012Z,44.00
2022-12-09T21:44:07.350Z,46.08
2022-12-09T21:46:37.755Z,41.40
2022-12-09T21:49:07.615Z,46.75
2022-12-09T21:51:36.995Z,44.47
2022-12-09T21:54:05.550Z,46.30
2022-12-09T21:56:35.604Z,49.47
2022-12-09T21:59:06.121Z,46.60
2022-12-09T22:01:36.286Z,50.53
2022-12-09T22:04:06.720Z,49.80
2022-12-09T22:06:36.552Z,49.15
2022-12-09T22:09:06.134Z,49.28
2022-12-09T22:11:38.022Z,48.58
2022-12-09T22:14:07.616Z,53.08
2022-12-09T22:16:38.474Z,49.05
2022-12-09T22:19:09.114Z,56.38
2022-12-09T22:21:38.599Z,55.97
2022-12-09T22:24:09.261Z,58.40
2022-12-09T22:26:37.306Z,59.92
2022-12-09T22:29:06.735Z,57.30
2022-12-09T22:31:37.361Z,61.23
2022-12-09T22:34:07.120Z,64.03
2022-12-09T22:36:36.964Z,60.85
2022-12-09T22:39:07.853Z,59.92
2022-12-09T22:41:36.291Z,59.78
2022-12-09T22:44:04.703Z,62.95
2022-12-09T22:46:34.947Z,63.90
2022-12-09T22:49:06.031Z,58.70
2022-12-09T22:51:35.651Z,59.67
2022-12-09T22:54:08.083Z,58.90
2022-12-09T22:56:39.128Z,63.95
2022-12-09T22:59:07.800Z,59.83
2022-12-09T23:01:37.761Z,60.53
2022-12-09T23:04:07.074Z,62.92
2022-12-09T23:06:36.485Z,61.10
2022-12-09T23:09:06.941Z,58.05
2022-12-09T23:11:35.312Z,60.53
2022-12-09T23:14:04.211Z,54.83
2022-12-09T23:16:32.229Z,56.60
2022-12-09T23:19:00.796Z,57.58
2022-12-09T23:21:30.469Z,55.65
2022-12-09T23:24:00.047Z,57.00
2022-12-09T23:26:32.104Z,55.28
2022-12-09T23:29:02.440Z,54.28
2022-12-09T23:31:32.132Z,57.10
2022-12-09T23:34:01.040Z,57.42
2022-12-09T23:36:31.980Z,56.60
2022-12-09T23:39:00.868Z,54.20
2022-12-09T23:41:31.198Z,58.60
2022-12-09T23:43:59.384Z,53.05
2022-12-09T23:46:28.701Z,53.22
2022-12-09T23:48:57.325Z,55.50
2022-12-09T23:51:26.857Z,60.22
2022-12-09T23:53:56.952Z,55.67
2022-12-09T23:56:27.526Z,53.63
2022-12-09T23:58:58.476Z,52.20
